createdAt,value
2019-04-06T00:00:51.908Z,72.19
2019-04-06T00:01:51.947Z,72.19
2019-04-06T00:02:52.308Z,72.48
2019-04-06T00:03:52.216Z,72.29
2019-04-06T00:04:52.071Z,72.38
2019-04-06T00:05:52.055Z,72.38
2019-04-06T00:06:52.204Z,72.38
2019-04-06T00:07:52.106Z,72.29
2019-04-06T00:08:52.186Z,72.29
2019-04-06T00:09:52.518Z,72.29
2019-04-06T00:10:52.265Z,72.29
2019-04-06T00:11:52.286Z,72.19
2019-04-06T00:12:52.311Z,72.29
2019-04-06T00:13:52.299Z,72.48
2019-04-06T00:14:52.375Z,72.29
2019-04-06T00:15:52.396Z,72.29
2019-04-06T00:16:52.757Z,72.48
2019-04-06T00:17:52.433Z,72.58
2019-04-06T00:18:52.497Z,72.29
2019-04-06T00:19:52.519Z,72.29
2019-04-06T00:20:52.520Z,72.29
2019-04-06T00:21:52.600Z,72.86
2019-04-06T00:22:52.628Z,72.86
2019-04-06T00:23:52.959Z,72.29
2019-04-06T00:24:52.642Z,72.86
2019-04-06T00:25:52.673Z,72.29
2019-04-06T00:26:52.701Z,72.19
2019-04-06T00:27:52.728Z,72.86
2019-04-06T00:28:52.815Z,72.48
2019-04-06T00:29:52.790Z,72.48
2019-04-06T00:30:53.198Z,72.77
2019-04-06T00:31:52.864Z,72.38
2019-04-06T00:32:52.934Z,72.86
2019-04-06T00:33:52.976Z,72.38
2019-04-06T00:34:53.001Z,72.48
2019-04-06T00:35:52.999Z,72.48
2019-04-06T00:36:53.006Z,72.38
2019-04-06T00:37:53.390Z,72.67
2019-04-06T00:38:53.068Z,72.38
2019-04-06T00:39:53.148Z,72.48
2019-04-06T00:40:53.184Z,72.48
2019-04-06T00:41:53.166Z,72.38
2019-04-06T00:42:53.201Z,72.38
2019-04-06T00:44:53.259Z,72.38
2019-04-06T00:45:53.340Z,72.38
2019-04-06T00:46:53.374Z,72.38
2019-04-06T00:47:53.351Z,72.86
2019-04-06T00:48:53.399Z,72.67
2019-04-06T00:49:53.467Z,73.06
2019-04-06T00:50:53.491Z,72.77
2019-04-06T00:51:53.779Z,72.77
2019-04-06T00:52:53.510Z,72.77
2019-04-06T00:53:53.541Z,72.77
2019-04-06T00:54:53.621Z,72.77
2019-04-06T00:55:55.947Z,72.77
2019-04-06T00:56:53.675Z,72.58
2019-04-06T00:57:53.663Z,72.77
2019-04-06T00:58:54.047Z,72.96
2019-04-06T00:59:53.771Z,72.96
2019-04-06T01:00:53.790Z,72.96
2019-04-06T01:01:53.839Z,72.86
2019-04-06T01:02:53.811Z,72.67
2019-04-06T01:03:53.942Z,72.86
2019-04-06T01:04:53.883Z,72.77
2019-04-06T01:05:54.205Z,72.96
2019-04-06T01:06:53.940Z,72.67
2019-04-06T01:07:53.972Z,72.67
2019-04-06T01:08:54.055Z,72.77
2019-04-06T01:09:54.033Z,72.67
2019-04-06T01:10:54.127Z,72.67
2019-04-06T01:11:54.090Z,72.67
2019-04-06T01:12:54.423Z,72.67
2019-04-06T01:13:54.206Z,72.77
2019-04-06T01:14:54.242Z,72.77
2019-04-06T01:15:54.286Z,72.67
2019-04-06T01:16:54.296Z,72.67
2019-04-06T01:17:54.288Z,72.67
2019-04-06T01:18:54.321Z,72.67
2019-04-06T01:19:54.653Z,72.58
2019-04-06T01:20:54.423Z,72.48
2019-04-06T01:21:54.460Z,72.67
2019-04-06T01:22:54.439Z,72.67
2019-04-06T01:23:54.471Z,72.58
2019-04-06T01:24:54.554Z,73.25
2019-04-06T01:25:54.530Z,73.06
2019-04-06T01:27:54.888Z,72.96
2019-04-06T01:28:54.627Z,73.25
2019-04-06T01:30:54.688Z,73.25
2019-04-06T01:31:54.720Z,73.25
2019-04-06T01:32:54.791Z,73.25
2019-04-06T01:33:54.781Z,73.25
2019-04-06T01:35:55.198Z,73.25
2019-04-06T01:36:54.922Z,73.44
2019-04-06T01:37:54.901Z,73.25
2019-04-06T01:39:54.963Z,73.44
2019-04-06T01:40:55.041Z,73.35
2019-04-06T01:41:55.037Z,73.06
2019-04-06T01:42:55.371Z,73.06
2019-04-06T01:43:55.090Z,73.25
2019-04-06T01:44:55.175Z,73.25
2019-04-06T01:45:55.240Z,73.06
2019-04-06T01:46:55.178Z,73.15
2019-04-06T01:47:55.365Z,72.96
2019-04-06T01:48:55.243Z,72.96
2019-04-06T01:49:55.574Z,72.96
2019-04-06T01:50:55.312Z,72.96
2019-04-06T01:51:55.341Z,73.44
2019-04-06T01:52:55.418Z,73.73
2019-04-06T01:53:55.402Z,73.25
2019-04-06T01:54:55.485Z,73.83
2019-04-06T01:55:55.465Z,73.83
2019-04-06T01:56:55.790Z,73.92
2019-04-06T01:57:55.535Z,73.83
2019-04-06T01:58:55.603Z,73.73
2019-04-06T01:59:55.583Z,73.73
2019-04-06T02:00:55.612Z,73.54
2019-04-06T02:01:55.918Z,73.54
2019-04-06T02:02:55.745Z,73.73
2019-04-06T02:03:56.063Z,74.11
2019-04-06T02:04:55.791Z,73.73
2019-04-06T02:06:55.874Z,74.11
2019-04-06T02:07:55.830Z,73.92
2019-04-06T02:09:55.942Z,73.92
2019-04-06T02:10:56.244Z,73.92
2019-04-06T02:11:55.957Z,74.02
2019-04-06T02:13:56.017Z,74.02
2019-04-06T02:16:56.160Z,74.02
2019-04-06T02:18:56.599Z,74.02
2019-04-06T02:19:56.276Z,73.92
2019-04-06T02:20:56.282Z,73.92
2019-04-06T02:21:56.339Z,74.02
2019-04-06T02:22:56.297Z,73.92
2019-04-06T02:24:56.404Z,73.73
2019-04-06T02:25:56.735Z,73.73
2019-04-06T02:26:56.426Z,73.92
2019-04-06T02:27:56.544Z,73.92
2019-04-06T02:28:56.482Z,73.73
2019-04-06T02:29:56.520Z,73.63
2019-04-06T02:30:56.545Z,74.02
2019-04-06T02:31:56.575Z,73.83
2019-04-06T02:32:56.666Z,73.92
2019-04-06T02:33:56.637Z,73.92
2019-04-06T02:34:56.719Z,73.92
2019-04-06T02:36:56.734Z,73.83
2019-04-06T02:37:56.773Z,73.92
2019-04-06T02:38:57.318Z,74.11
2019-04-06T02:39:56.827Z,74.02
2019-04-06T02:40:56.930Z,73.73
2019-04-06T02:41:56.953Z,73.73
2019-04-06T02:42:56.977Z,73.73
2019-04-06T02:43:56.994Z,73.73
2019-04-06T02:44:57.277Z,73.83
2019-04-06T02:45:57.165Z,73.92
2019-04-06T02:46:57.040Z,74.02
2019-04-06T02:47:57.218Z,74.11
2019-04-06T02:48:57.161Z,74.11
2019-04-06T02:49:57.133Z,74.02
2019-04-06T02:50:57.519Z,74.02
2019-04-06T02:51:57.197Z,74.02
2019-04-06T02:52:57.278Z,73.92
2019-04-06T02:53:57.263Z,74.02
2019-04-06T02:54:57.368Z,73.92
2019-04-06T02:55:57.345Z,74.21
2019-04-06T02:56:57.650Z,74.02
2019-04-06T02:57:57.378Z,73.92
2019-04-06T02:58:57.464Z,74.02
2019-04-06T02:59:57.498Z,74.02
2019-04-06T03:00:57.531Z,73.83
2019-04-06T03:03:57.577Z,74.02
2019-04-06T03:04:57.957Z,74.02
2019-04-06T03:05:57.628Z,73.92
2019-04-06T03:06:57.721Z,73.73
2019-04-06T03:07:57.691Z,73.73
2019-04-06T03:08:57.883Z,73.92
2019-04-06T03:09:57.810Z,73.92
2019-04-06T03:10:57.861Z,73.83
2019-04-06T03:11:58.343Z,73.92
2019-04-06T03:12:57.963Z,73.73
2019-04-06T03:13:58.043Z,74.02
2019-04-06T03:14:57.966Z,73.73
2019-04-06T03:15:57.991Z,73.73
2019-04-06T03:16:58.192Z,73.92
2019-04-06T03:17:58.010Z,74.02
2019-04-06T03:18:58.379Z,74.02
2019-04-06T03:19:58.121Z,73.83
2019-04-06T03:20:58.143Z,74.11
2019-04-06T03:21:58.128Z,73.73
2019-04-06T03:22:58.214Z,73.92
2019-04-06T03:23:58.558Z,74.02
2019-04-06T03:24:58.223Z,73.92
2019-04-06T03:25:58.611Z,73.83
2019-04-06T03:27:02.200Z,74.08
2019-04-06T03:27:58.331Z,73.73
2019-04-06T03:28:58.341Z,73.73
2019-04-06T03:29:59.235Z,74.02
2019-04-06T03:30:58.778Z,73.92
2019-04-06T03:31:58.434Z,73.83
2019-04-06T03:32:59.130Z,74.02
2019-04-06T03:33:58.636Z,74.02
2019-04-06T03:34:58.946Z,73.83
2019-04-06T03:35:58.608Z,74.11
2019-04-06T03:36:58.750Z,73.83
2019-04-06T03:37:58.623Z,73.73
2019-04-06T03:38:58.725Z,73.83
2019-04-06T03:39:58.987Z,73.54
2019-04-06T03:40:58.858Z,73.69
2019-04-06T03:41:58.813Z,74.02
2019-04-06T03:42:58.994Z,74.02
2019-04-06T03:43:58.810Z,73.88
2019-04-06T03:44:58.849Z,73.83
2019-04-06T03:45:58.878Z,73.92
2019-04-06T03:46:59.211Z,73.73
2019-04-06T03:47:59.306Z,73.83
2019-04-06T03:48:59.013Z,73.69
2019-04-06T03:49:59.118Z,73.54
2019-04-06T03:50:59.047Z,73.92
2019-04-06T03:51:59.064Z,73.69
2019-04-06T03:52:59.441Z,73.54
2019-04-06T03:53:59.421Z,73.79
2019-04-06T03:54:59.251Z,73.98
2019-04-06T03:55:59.330Z,73.83
2019-04-06T03:57:13.188Z,73.60
2019-04-06T03:57:59.309Z,73.83
2019-04-06T03:58:59.331Z,74.02
2019-04-06T04:00:59.334Z,74.11
2019-04-06T04:01:59.663Z,74.27
2019-04-06T04:02:59.399Z,74.30
2019-04-06T04:03:59.479Z,74.40
2019-04-06T04:04:59.719Z,74.46
2019-04-06T04:05:59.495Z,74.37
2019-04-06T04:06:59.565Z,74.21
2019-04-06T04:07:59.549Z,74.30
2019-04-06T04:08:59.944Z,74.30
2019-04-06T04:09:59.618Z,74.40
2019-04-06T04:10:59.746Z,74.21
2019-04-06T04:11:59.726Z,74.30
2019-04-06T04:12:59.718Z,74.40
2019-04-06T04:13:59.840Z,74.55
2019-04-06T04:14:59.816Z,74.37
2019-04-06T04:16:00.099Z,74.40
2019-04-06T04:16:59.876Z,74.21
2019-04-06T04:17:59.941Z,74.50
2019-04-06T04:19:00.050Z,74.21
2019-04-06T04:19:59.923Z,74.37
2019-04-06T04:21:00.117Z,74.17
2019-04-06T04:21:59.984Z,74.27
2019-04-06T04:23:00.072Z,74.37
2019-04-06T04:24:00.045Z,74.75
2019-04-06T04:25:00.084Z,74.46
2019-04-06T04:26:00.118Z,74.46
2019-04-06T04:27:00.197Z,74.46
2019-04-06T04:28:00.184Z,74.37
2019-04-06T04:29:00.560Z,74.37
2019-04-06T04:30:00.234Z,74.37
2019-04-06T04:32:00.352Z,74.27
2019-04-06T04:33:00.324Z,74.30
2019-04-06T04:34:00.400Z,74.46
2019-04-06T04:35:00.800Z,74.46
2019-04-06T04:36:00.796Z,74.40
2019-04-06T04:37:00.447Z,74.50
2019-04-06T04:38:00.714Z,74.50
2019-04-06T04:39:00.577Z,74.21
2019-04-06T04:40:00.715Z,74.65
2019-04-06T04:41:00.941Z,74.40
2019-04-06T04:42:00.914Z,74.40
2019-04-06T04:43:00.683Z,74.50
2019-04-06T04:44:00.662Z,74.30
2019-04-06T04:45:00.746Z,74.40
2019-04-06T04:46:00.834Z,74.40
2019-04-06T04:47:00.845Z,74.27
2019-04-06T04:48:01.393Z,74.27
2019-04-06T04:51:00.885Z,74.40
2019-04-06T04:52:01.084Z,74.27
2019-04-06T04:53:00.995Z,74.37
2019-04-06T04:54:01.286Z,74.60
2019-04-06T04:55:01.058Z,74.37
2019-04-06T04:56:01.035Z,74.46
2019-04-06T04:57:01.116Z,74.08
2019-04-06T04:58:01.147Z,74.27
2019-04-06T04:59:01.181Z,74.46
2019-04-06T05:00:01.408Z,74.37
2019-04-06T05:01:01.495Z,74.27
2019-04-06T05:02:01.222Z,74.37
2019-04-06T05:03:01.330Z,74.30
2019-04-06T05:04:01.331Z,74.17
2019-04-06T05:05:01.318Z,74.17
2019-04-06T05:06:01.500Z,74.27
2019-04-06T05:07:01.429Z,74.17
2019-04-06T05:08:02.060Z,74.17
2019-04-06T05:09:01.664Z,74.17
2019-04-06T05:10:01.649Z,74.17
2019-04-06T05:11:01.545Z,74.17
2019-04-06T05:12:01.593Z,74.46
2019-04-06T05:13:01.604Z,74.46
2019-04-06T05:14:01.641Z,74.27
2019-04-06T05:15:01.920Z,74.17
2019-04-06T05:16:01.707Z,74.55
2019-04-06T05:17:01.743Z,74.17
2019-04-06T05:18:01.713Z,74.17
2019-04-06T05:19:01.800Z,74.27
2019-04-06T05:20:01.780Z,74.17
2019-04-06T05:21:01.851Z,74.27
2019-04-06T05:23:01.922Z,74.27
2019-04-06T05:24:01.983Z,74.46
2019-04-06T05:25:02.387Z,74.55
2019-04-06T05:26:02.083Z,75.04
2019-04-06T05:27:01.995Z,74.75
2019-04-06T05:28:02.127Z,74.85
2019-04-06T05:29:02.362Z,75.04
2019-04-06T05:30:02.113Z,74.75
2019-04-06T05:31:02.167Z,75.17
2019-04-06T05:32:02.207Z,74.94
2019-04-06T05:33:02.258Z,75.04
2019-04-06T05:34:02.259Z,74.75
2019-04-06T05:35:02.299Z,74.94
2019-04-06T05:36:02.574Z,75.07
2019-04-06T05:38:02.398Z,75.17
2019-04-06T05:39:02.374Z,75.07
2019-04-06T05:40:02.402Z,74.94
2019-04-06T05:41:02.426Z,74.98
2019-04-06T05:42:02.457Z,74.55
2019-04-06T05:43:02.833Z,74.46
2019-04-06T05:44:02.572Z,74.50
2019-04-06T05:45:02.790Z,74.46
2019-04-06T05:46:02.631Z,74.37
2019-04-06T05:47:02.658Z,74.55
2019-04-06T05:48:02.640Z,74.37
2019-04-06T05:49:02.716Z,75.04
2019-04-06T05:50:02.997Z,74.85
2019-04-06T05:51:02.740Z,75.04
2019-04-06T05:52:02.846Z,75.07
2019-04-06T05:53:02.796Z,74.75
2019-04-06T05:54:02.875Z,75.04
2019-04-06T05:56:02.895Z,74.94
2019-04-06T05:58:04.722Z,74.46
2019-04-06T05:59:03.036Z,74.37
2019-04-06T06:00:03.060Z,74.50
2019-04-06T06:01:04.095Z,74.46
2019-04-06T06:02:03.084Z,74.37
2019-04-06T06:03:03.172Z,74.37
2019-04-06T06:04:03.529Z,75.04
2019-04-06T06:05:03.553Z,75.07
2019-04-06T06:06:03.253Z,74.30
2019-04-06T06:07:03.223Z,74.55
2019-04-06T06:08:03.505Z,74.65
2019-04-06T06:09:03.290Z,74.50
2019-04-06T06:10:03.369Z,74.69
2019-04-06T06:12:03.555Z,74.30
2019-04-06T06:13:03.419Z,74.11
2019-04-06T06:14:03.495Z,74.40
2019-04-06T06:15:03.522Z,74.30
2019-04-06T06:16:03.558Z,74.40
2019-04-06T06:17:03.594Z,74.40
2019-04-06T06:18:04.040Z,74.30
2019-04-06T06:19:03.652Z,74.50
2019-04-06T06:20:03.703Z,74.40
2019-04-06T06:21:03.658Z,74.40
2019-04-06T06:22:03.756Z,74.40
2019-04-06T06:23:03.775Z,74.30
2019-04-06T06:24:03.748Z,74.21
2019-04-06T06:25:04.088Z,74.21
2019-04-06T06:26:03.934Z,74.69
2019-04-06T06:27:03.897Z,74.69
2019-04-06T06:28:13.711Z,74.40
2019-04-06T06:29:03.962Z,74.30
2019-04-06T06:30:03.941Z,74.60
2019-04-06T06:31:04.268Z,74.40
2019-04-06T06:32:03.996Z,74.30
2019-04-06T06:33:04.076Z,74.30
2019-04-06T06:34:04.117Z,74.30
2019-04-06T06:35:04.144Z,74.30
2019-04-06T06:36:04.206Z,74.69
2019-04-06T06:37:04.456Z,74.21
2019-04-06T06:38:04.243Z,74.40
2019-04-06T06:39:04.218Z,74.50
2019-04-06T06:40:04.461Z,74.50
2019-04-06T06:41:04.280Z,74.98
2019-04-06T06:42:04.314Z,74.60
2019-04-06T06:43:04.734Z,74.60
2019-04-06T06:44:04.573Z,73.92
2019-04-06T06:45:04.559Z,74.11
2019-04-06T06:46:04.546Z,74.11
2019-04-06T06:47:04.518Z,74.11
2019-04-06T06:48:04.504Z,74.11
2019-04-06T06:49:04.608Z,73.73
2019-04-06T06:50:04.858Z,73.73
2019-04-06T06:51:04.593Z,74.02
2019-04-06T06:52:04.623Z,74.11
2019-04-06T06:53:04.707Z,73.92
2019-04-06T06:54:04.686Z,73.92
2019-04-06T06:55:04.773Z,73.92
2019-04-06T06:56:04.755Z,74.25
2019-04-06T06:57:05.129Z,73.83
2019-04-06T06:58:04.862Z,73.92
2019-04-06T06:59:04.850Z,73.63
2019-04-06T07:00:04.890Z,73.83
2019-04-06T07:01:04.905Z,74.11
2019-04-06T07:02:05.043Z,73.35
2019-04-06T07:03:04.969Z,73.44
2019-04-06T07:04:05.305Z,73.54
2019-04-06T07:05:05.392Z,73.67
2019-04-06T07:06:05.076Z,73.77
2019-04-06T07:07:05.113Z,73.54
2019-04-06T07:08:05.183Z,73.86
2019-04-06T07:09:05.205Z,73.77
2019-04-06T07:10:06.237Z,73.00
2019-04-06T07:11:05.520Z,73.09
2019-04-06T07:12:05.295Z,73.09
2019-04-06T07:13:05.398Z,73.00
2019-04-06T07:14:05.346Z,73.09
2019-04-06T07:15:05.512Z,73.19
2019-04-06T07:16:05.403Z,73.09
2019-04-06T07:17:05.467Z,73.28
2019-04-06T07:18:05.760Z,73.28
2019-04-06T07:19:05.567Z,73.28
2019-04-06T07:20:05.499Z,73.38
2019-04-06T07:21:05.529Z,73.19
2019-04-06T07:22:05.608Z,73.57
2019-04-06T07:23:05.603Z,73.09
2019-04-06T07:24:05.673Z,73.38
2019-04-06T07:25:05.959Z,72.61
2019-04-06T07:26:05.777Z,72.71
2019-04-06T07:27:05.769Z,73.00
2019-04-06T07:28:05.748Z,72.80
2019-04-06T07:29:05.832Z,72.90
2019-04-06T07:30:05.829Z,72.71
2019-04-06T07:31:05.891Z,72.90
2019-04-06T07:32:06.179Z,73.09
2019-04-06T07:33:05.959Z,73.09
2019-04-06T07:34:05.945Z,73.00
2019-04-06T07:35:06.025Z,72.80
2019-04-06T07:36:05.998Z,73.00
2019-04-06T07:37:06.034Z,72.80
2019-04-06T07:38:06.350Z,72.42
2019-04-06T07:39:06.487Z,72.52
2019-04-06T07:40:06.340Z,72.32
2019-04-06T07:41:06.289Z,72.80
2019-04-06T07:42:06.258Z,72.61
2019-04-06T07:43:06.260Z,72.52
2019-04-06T07:44:06.494Z,72.71
2019-04-06T07:45:06.496Z,72.80
2019-04-06T07:46:06.684Z,72.32
2019-04-06T07:47:06.355Z,72.61
2019-04-06T07:48:06.455Z,72.61
2019-04-06T07:49:09.690Z,72.32
2019-04-06T07:50:06.632Z,72.52
2019-04-06T07:51:06.489Z,72.42
2019-04-06T07:52:06.757Z,72.84
2019-04-06T07:53:06.843Z,72.80
2019-04-06T07:54:06.622Z,72.32
2019-04-06T07:55:06.606Z,72.52
2019-04-06T07:56:06.638Z,72.36
2019-04-06T07:57:06.717Z,72.65
2019-04-06T07:58:06.706Z,72.36
2019-04-06T07:59:06.935Z,72.42
2019-04-06T08:00:07.063Z,72.36
2019-04-06T08:01:06.868Z,72.07
2019-04-06T08:03:06.855Z,72.26
2019-04-06T08:04:07.090Z,72.17
2019-04-06T08:05:07.034Z,72.07
2019-04-06T08:06:06.948Z,72.07
2019-04-06T08:07:07.283Z,71.88
2019-04-06T08:08:07.013Z,71.97
2019-04-06T08:09:07.049Z,71.59
2019-04-06T08:10:07.133Z,71.69
2019-04-06T08:11:07.267Z,71.97
2019-04-06T08:12:07.146Z,71.69
2019-04-06T08:13:07.328Z,72.17
2019-04-06T08:14:07.203Z,71.40
2019-04-06T08:15:07.512Z,71.49
2019-04-06T08:16:07.270Z,71.49
2019-04-06T08:17:07.362Z,71.59
2019-04-06T08:18:07.335Z,71.40
2019-04-06T08:19:07.587Z,71.40
2019-04-06T08:20:07.749Z,71.49
2019-04-06T08:21:07.490Z,71.49
2019-04-06T08:22:07.463Z,71.49
2019-04-06T08:23:07.541Z,71.20
2019-04-06T08:24:07.571Z,71.11
2019-04-06T08:25:07.608Z,71.01
2019-04-06T08:26:07.886Z,71.01
2019-04-06T08:27:07.849Z,71.20
2019-04-06T08:28:07.655Z,71.11
2019-04-06T08:29:07.741Z,70.92
2019-04-06T08:30:07.725Z,71.01
2019-04-06T08:31:07.818Z,70.92
2019-04-06T08:32:08.077Z,70.82
2019-04-06T08:33:07.865Z,70.95
2019-04-06T08:34:07.848Z,70.62
2019-04-06T08:35:07.925Z,70.47
2019-04-06T08:36:07.929Z,70.28
2019-04-06T08:37:08.033Z,70.66
2019-04-06T08:38:07.988Z,70.53
2019-04-06T08:39:08.353Z,70.47
2019-04-06T08:40:08.083Z,70.76
2019-04-06T08:41:08.069Z,70.47
2019-04-06T08:42:08.158Z,70.56
2019-04-06T08:43:08.203Z,70.47
2019-04-06T08:44:08.160Z,70.37
2019-04-06T08:45:08.189Z,70.28
2019-04-06T08:46:08.528Z,70.28
2019-04-06T08:47:08.312Z,70.09
2019-04-06T08:48:08.292Z,70.18
2019-04-06T08:49:08.377Z,70.09
2019-04-06T08:50:08.383Z,70.09
2019-04-06T08:51:08.385Z,70.09
2019-04-06T08:52:08.492Z,70.28
2019-04-06T08:53:08.809Z,70.09
2019-04-06T08:54:08.556Z,70.28
2019-04-06T08:55:08.518Z,70.37
2019-04-06T08:56:08.684Z,70.28
2019-04-06T08:57:08.580Z,70.37
2019-04-06T08:58:08.863Z,70.37
2019-04-06T08:59:12.189Z,70.18
2019-04-06T09:00:09.185Z,70.18
2019-04-06T09:01:08.773Z,70.18
2019-04-06T09:02:08.787Z,70.18
2019-04-06T09:03:08.823Z,70.09
2019-04-06T09:04:09.078Z,70.09
2019-04-06T09:05:08.844Z,70.28
2019-04-06T09:06:08.873Z,70.18
2019-04-06T09:07:09.219Z,70.18
2019-04-06T09:08:08.986Z,70.28
2019-04-06T09:09:09.022Z,70.28
2019-04-06T09:10:09.021Z,69.99
2019-04-06T09:11:09.094Z,70.28
2019-04-06T09:12:09.066Z,70.18
2019-04-06T09:13:09.163Z,70.28
2019-04-06T09:15:09.506Z,70.18
2019-04-06T09:16:09.196Z,70.28
2019-04-06T09:17:09.573Z,70.28
2019-04-06T09:18:09.292Z,70.28
2019-04-06T09:19:09.344Z,70.09
2019-04-06T09:20:09.370Z,70.28
2019-04-06T09:21:09.419Z,70.56
2019-04-06T09:22:09.736Z,70.47
2019-04-06T09:23:09.669Z,70.56
2019-04-06T09:24:09.503Z,70.66
2019-04-06T09:25:09.538Z,70.56
2019-04-06T09:26:09.564Z,70.56
2019-04-06T09:27:09.624Z,70.66
2019-04-06T09:28:09.603Z,70.47
2019-04-06T09:29:10.055Z,70.47
2019-04-06T09:30:09.651Z,70.56
2019-04-06T09:31:09.747Z,70.47
2019-04-06T09:32:09.706Z,70.37
2019-04-06T09:33:09.812Z,70.56
2019-04-06T09:34:09.780Z,70.47
2019-04-06T09:35:09.858Z,70.66
2019-04-06T09:36:10.134Z,70.56
2019-04-06T09:37:10.194Z,70.66
2019-04-06T09:38:09.927Z,70.56
2019-04-06T09:39:09.942Z,70.47
2019-04-06T09:40:10.286Z,70.70
2019-04-06T09:41:10.019Z,70.66
2019-04-06T09:42:10.131Z,70.47
2019-04-06T09:43:10.375Z,70.28
2019-04-06T09:44:10.097Z,70.47
2019-04-06T09:45:10.364Z,70.37
2019-04-06T09:46:10.169Z,70.66
2019-04-06T09:47:10.399Z,70.76
2019-04-06T09:48:10.627Z,70.66
2019-04-06T09:49:10.440Z,70.47
2019-04-06T09:50:10.597Z,70.66
2019-04-06T09:51:10.545Z,70.37
2019-04-06T09:52:10.410Z,70.31
2019-04-06T09:53:10.452Z,70.18
2019-04-06T09:54:10.473Z,70.31
2019-04-06T09:55:10.456Z,70.31
2019-04-06T09:56:10.662Z,70.60
2019-04-06T09:57:10.825Z,70.60
2019-04-06T09:58:10.552Z,70.41
2019-04-06T09:59:10.906Z,70.41
2019-04-06T10:00:10.666Z,70.60
2019-04-06T10:01:10.705Z,70.41
2019-04-06T10:02:10.684Z,70.21
2019-04-06T10:03:11.094Z,70.31
2019-04-06T10:05:11.139Z,70.31
2019-04-06T10:06:10.811Z,70.31
2019-04-06T10:07:10.895Z,70.21
2019-04-06T10:08:11.270Z,69.83
2019-04-06T10:09:10.914Z,69.73
2019-04-06T10:10:11.006Z,69.83
2019-04-06T10:11:11.002Z,70.02
2019-04-06T10:12:11.438Z,69.73
2019-04-06T10:13:11.102Z,70.02
2019-04-06T10:14:11.114Z,69.93
2019-04-06T10:15:11.165Z,69.83
2019-04-06T10:16:11.451Z,69.83
2019-04-06T10:17:11.322Z,69.54
2019-04-06T10:18:11.485Z,69.15
2019-04-06T10:19:11.545Z,69.15
2019-04-06T10:20:11.327Z,69.25
2019-04-06T10:21:11.366Z,69.25
2019-04-06T10:22:11.359Z,69.45
2019-04-06T10:23:11.379Z,69.25
2019-04-06T10:24:11.458Z,69.45
2019-04-06T10:25:11.717Z,69.54
2019-04-06T10:26:11.776Z,69.54
2019-04-06T10:27:11.606Z,69.54
2019-04-06T10:28:11.557Z,69.54
2019-04-06T10:29:11.623Z,69.64
2019-04-06T10:30:11.657Z,68.96
2019-04-06T10:31:11.693Z,69.15
2019-04-06T10:32:11.735Z,69.15
2019-04-06T10:33:12.158Z,69.15
2019-04-06T10:34:11.732Z,69.25
2019-04-06T10:35:11.840Z,69.25
2019-04-06T10:36:11.831Z,68.96
2019-04-06T10:37:12.048Z,69.35
2019-04-06T10:38:11.868Z,69.06
2019-04-06T10:39:11.908Z,68.96
2019-04-06T10:40:12.238Z,68.96
2019-04-06T10:41:12.245Z,69.06
2019-04-06T10:42:12.057Z,68.96
2019-04-06T10:43:12.088Z,68.96
2019-04-06T10:44:12.075Z,68.48
2019-04-06T10:45:12.108Z,68.68
2019-04-06T10:46:12.185Z,68.87
2019-04-06T10:47:12.473Z,68.96
2019-04-06T10:48:12.247Z,68.96
2019-04-06T10:49:12.627Z,68.87
2019-04-06T10:50:12.273Z,68.48
2019-04-06T10:51:12.307Z,68.77
2019-04-06T10:52:12.336Z,69.06
2019-04-06T10:53:12.367Z,69.06
2019-04-06T10:54:12.817Z,69.06
2019-04-06T10:55:12.696Z,68.58
2019-04-06T10:56:12.529Z,68.90
2019-04-06T10:57:12.561Z,68.87
2019-04-06T10:58:12.677Z,68.80
2019-04-06T10:59:12.568Z,69.09
2019-04-06T11:00:12.906Z,69.09
2019-04-06T11:01:12.682Z,69.25
2019-04-06T11:02:12.718Z,69.09
2019-04-06T11:03:12.862Z,69.29
2019-04-06T11:04:12.893Z,69.19
2019-04-06T11:05:12.908Z,69.15
2019-04-06T11:06:13.244Z,68.87
2019-04-06T11:07:12.906Z,68.61
2019-04-06T11:08:12.916Z,68.80
2019-04-06T11:09:12.965Z,68.80
2019-04-06T11:11:16.380Z,68.61
2019-04-06T11:12:13.336Z,68.71
2019-04-06T11:13:13.085Z,68.80
2019-04-06T11:14:13.075Z,68.80
2019-04-06T11:15:13.096Z,68.80
2019-04-06T11:16:13.135Z,68.80
2019-04-06T11:17:13.166Z,68.80
2019-04-06T11:18:14.165Z,68.71
2019-04-06T11:19:13.580Z,68.71
2019-04-06T11:20:13.265Z,68.80
2019-04-06T11:21:13.421Z,68.80
2019-04-06T11:22:13.325Z,68.71
2019-04-06T11:23:13.638Z,68.71
2019-04-06T11:24:13.399Z,68.71
2019-04-06T11:25:13.474Z,68.32
2019-04-06T11:26:13.871Z,68.90
2019-04-06T11:27:13.843Z,68.80
2019-04-06T11:28:13.583Z,68.32
2019-04-06T11:29:13.621Z,68.52
2019-04-06T11:30:14.975Z,68.23
2019-04-06T11:31:13.679Z,68.61
2019-04-06T11:32:13.709Z,68.32
2019-04-06T11:33:14.049Z,68.29
2019-04-06T11:34:13.775Z,68.13
2019-04-06T11:35:13.821Z,67.94
2019-04-06T11:36:13.854Z,68.23
2019-04-06T11:37:14.097Z,68.42
2019-04-06T11:38:13.862Z,68.42
2019-04-06T11:39:13.971Z,68.52
2019-04-06T11:40:14.225Z,68.42
2019-04-06T11:41:14.017Z,68.42
2019-04-06T11:42:13.989Z,68.61
2019-04-06T11:43:14.110Z,68.71
2019-04-06T11:44:14.199Z,68.61
2019-04-06T11:45:14.311Z,68.71
2019-04-06T11:46:14.155Z,68.71
2019-04-06T11:47:14.516Z,68.71
2019-04-06T11:48:14.544Z,68.23
2019-04-06T11:49:14.245Z,68.52
2019-04-06T11:50:14.320Z,68.42
2019-04-06T11:51:14.298Z,68.32
2019-04-06T11:52:14.389Z,68.32
2019-04-06T11:53:14.364Z,68.52
2019-04-06T11:54:14.788Z,68.23
2019-04-06T11:55:14.489Z,68.42
2019-04-06T11:56:14.476Z,68.32
2019-04-06T11:57:14.516Z,68.32
2019-04-06T11:58:14.528Z,67.84
2019-04-06T11:59:14.640Z,67.94
2019-04-06T12:00:24.649Z,68.04
2019-04-06T12:01:14.927Z,67.94
2019-04-06T12:02:14.849Z,67.94
2019-04-06T12:03:14.757Z,68.04
2019-04-06T12:04:14.735Z,67.55
2019-04-06T12:05:14.827Z,67.55
2019-04-06T12:06:14.810Z,67.55
2019-04-06T12:07:14.890Z,67.46
2019-04-06T12:08:15.224Z,67.55
2019-04-06T12:09:14.905Z,67.55
2019-04-06T12:10:14.981Z,67.94
2019-04-06T12:11:14.971Z,67.94
2019-04-06T12:12:15.052Z,67.84
2019-04-06T12:13:15.041Z,67.84
2019-04-06T12:14:15.244Z,67.65
2019-04-06T12:15:15.445Z,67.94
2019-04-06T12:16:15.192Z,67.36
2019-04-06T12:17:15.410Z,67.16
2019-04-06T12:18:17.583Z,67.55
2019-04-06T12:19:15.237Z,67.26
2019-04-06T12:20:15.338Z,67.16
2019-04-06T12:21:15.361Z,67.46
2019-04-06T12:22:15.634Z,67.36
2019-04-06T12:23:15.511Z,67.40
2019-04-06T12:24:15.651Z,67.55
2019-04-06T12:25:15.487Z,67.36
2019-04-06T12:26:15.467Z,67.46
2019-04-06T12:27:15.558Z,67.46
2019-04-06T12:28:15.539Z,67.46
2019-04-06T12:29:16.953Z,67.36
2019-04-06T12:30:15.612Z,67.26
2019-04-06T12:31:15.713Z,67.20
2019-04-06T12:32:15.693Z,67.26
2019-04-06T12:33:15.710Z,66.97
2019-04-06T12:34:15.794Z,67.00
2019-04-06T12:35:15.831Z,67.10
2019-04-06T12:36:16.160Z,67.20
2019-04-06T12:37:15.933Z,66.91
2019-04-06T12:38:15.877Z,66.72
2019-04-06T12:39:15.969Z,66.78
2019-04-06T12:40:16.303Z,66.78
2019-04-06T12:41:16.033Z,66.91
2019-04-06T12:42:16.313Z,66.72
2019-04-06T12:43:16.047Z,66.72
2019-04-06T12:44:16.131Z,66.91
2019-04-06T12:45:16.143Z,66.82
2019-04-06T12:46:16.207Z,66.82
2019-04-06T12:47:16.485Z,66.82
2019-04-06T12:48:16.524Z,66.43
2019-04-06T12:49:16.700Z,66.52
2019-04-06T12:50:16.334Z,66.82
2019-04-06T12:51:16.391Z,66.33
2019-04-06T12:52:16.349Z,66.52
2019-04-06T12:53:16.487Z,66.24
2019-04-06T12:54:18.690Z,66.14
2019-04-06T12:55:16.495Z,65.95
2019-04-06T12:56:16.498Z,65.85
2019-04-06T12:57:16.734Z,65.95
2019-04-06T12:58:16.727Z,66.24
2019-04-06T12:59:16.599Z,66.04
2019-04-06T13:00:16.761Z,66.14
2019-04-06T13:01:17.010Z,66.04
2019-04-06T13:02:16.741Z,66.33
2019-04-06T13:03:16.726Z,66.04
2019-04-06T13:04:16.758Z,66.14
2019-04-06T13:05:16.847Z,66.24
2019-04-06T13:06:16.829Z,65.66
2019-04-06T13:07:18.207Z,65.78
2019-04-06T13:08:17.202Z,65.47
2019-04-06T13:09:16.998Z,65.47
2019-04-06T13:10:16.976Z,65.78
2019-04-06T13:11:19.673Z,65.78
2019-04-06T13:12:17.198Z,65.59
2019-04-06T13:13:17.131Z,65.50
2019-04-06T13:14:17.153Z,65.11
2019-04-06T13:15:17.485Z,65.11
2019-04-06T13:16:17.227Z,65.30
2019-04-06T13:17:17.199Z,65.11
2019-04-06T13:18:17.284Z,65.20
2019-04-06T13:20:17.399Z,65.50
2019-04-06T13:21:17.338Z,65.20
2019-04-06T13:22:18.070Z,65.40